Time;durP1;ratioP1;P1;durP2;ratioP2;P2;SDS_P1;SDS_P2;PMS_P1;PMS_P2;Temp;Humidity;BMP_temperature;BMP_pressure;BME280_temperature;BME280_humidity;BME280_pressure;Samples;Min_cycle;Max_cycle;Signal;HPM_P1;HPM_P2
2021/09/23 00:01:13;;;;;;;14.55;11.85;;;14.20;1.00;;;;;;5048250;28;20025;-78
2021/09/23 00:06:24;;;;;;;13.10;11.30;;;14.20;1.00;;;;;;5049276;28;20397;-78
2021/09/23 00:08:51;;;;;;;13.07;10.90;;;14.20;1.00;;;;;;5049513;28;20871;-78
2021/09/23 00:11:17;;;;;;;12.57;10.35;;;14.20;1.00;;;;;;5050901;28;20025;-79
2021/09/23 00:13:42;;;;;;;12.90;10.38;;;14.10;1.00;;;;;;5050148;28;20626;-79
2021/09/23 00:16:08;;;;;;;14.30;11.00;;;14.00;1.00;;;;;;5048966;28;20067;-78
2021/09/23 00:18:34;;;;;;;15.43;11.05;;;14.00;1.00;;;;;;5049308;28;20025;-79
2021/09/23 00:21:02;;;;;;;15.10;11.55;;;14.10;1.00;;;;;;5030969;28;20522;-78
2021/09/23 00:23:29;;;;;;;14.27;11.35;;;14.10;1.00;;;;;;5049913;28;20366;-78
2021/09/23 00:25:54;;;;;;;13.13;11.27;;;14.00;1.00;;;;;;5051093;28;20017;-78
2021/09/23 00:28:20;;;;;;;15.70;11.93;;;13.90;1.00;;;;;;5049005;28;20401;-79
2021/09/23 00:30:46;;;;;;;13.40;11.60;;;13.90;1.00;;;;;;5048932;28;20013;-79
2021/09/23 00:33:11;;;;;;;13.82;11.10;;;13.90;1.00;;;;;;5049071;28;20443;-79
2021/09/23 00:35:37;;;;;;;16.85;12.07;;;13.80;1.00;;;;;;5048925;28;22419;-78
2021/09/23 00:38:03;;;;;;;13.52;10.68;;;13.80;1.00;;;;;;5051055;28;20039;-79
2021/09/23 00:40:29;;;;;;;12.73;10.60;;;13.80;1.00;;;;;;5047317;28;20079;-78
2021/09/23 00:42:54;;;;;;;14.82;11.48;;;13.90;1.00;;;;;;5048667;28;20029;-78
2021/09/23 00:45:21;;;;;;;13.15;11.38;;;13.80;1.00;;;;;;5049182;28;20467;-78
2021/09/23 00:47:48;;;;;;;14.38;11.50;;;13.80;1.00;;;;;;5049857;28;20060;-79
2021/09/23 00:50:16;;;;;;;15.65;12.43;;;13.70;1.00;;;;;;5053070;28;20104;-78
2021/09/23 00:52:42;;;;;;;15.35;12.73;;;13.80;1.00;;;;;;5053065;28;20035;-78
2021/09/23 00:55:09;;;;;;;15.55;12.80;;;13.90;1.00;;;;;;5052604;28;20112;-78
2021/09/23 00:57:35;;;;;;;17.55;13.30;;;13.90;1.00;;;;;;5052936;28;20401;-78
2021/09/23 01:00:01;;;;;;;16.70;13.02;;;13.90;1.00;;;;;;5052321;28;20029;-78
2021/09/23 01:02:27;;;;;;;16.98;12.13;;;13.90;1.00;;;;;;5053454;28;20040;-78
2021/09/23 01:04:52;;;;;;;14.18;11.25;;;13.90;1.00;;;;;;5054954;28;20111;-78
2021/09/23 01:07:20;;;;;;;13.80;10.95;;;13.80;1.00;;;;;;5052690;28;20051;-79
2021/09/23 01:09:51;;;;;;;12.98;10.88;;;13.80;1.00;;;;;;5052284;28;20094;-79
2021/09/23 01:12:19;;;;;;;12.48;11.18;;;13.70;1.00;;;;;;5052492;28;20342;-78
2021/09/23 01:14:45;;;;;;;13.40;11.55;;;13.60;1.00;;;;;;5036933;28;20045;-78
2021/09/23 01:17:11;;;;;;;14.02;10.95;;;13.60;1.00;;;;;;5036397;28;20582;-79
2021/09/23 01:19:37;;;;;;;13.82;10.60;;;13.40;1.00;;;;;;5051342;28;20570;-78
2021/09/23 01:22:04;;;;;;;14.55;11.23;;;13.60;1.00;;;;;;5052025;28;20035;-78
2021/09/23 01:24:30;;;;;;;12.65;10.10;;;13.40;1.00;;;;;;5052168;28;20021;-78
2021/09/23 01:26:56;;;;;;;14.48;10.88;;;13.50;1.00;;;;;;5052510;28;20484;-78
2021/09/23 01:29:25;;;;;;;11.07;9.88;;;13.30;1.00;;;;;;5053661;28;20486;-78
2021/09/23 01:31:51;;;;;;;13.52;10.75;;;13.40;1.00;;;;;;5053195;28;20024;-78
2021/09/23 01:34:17;;;;;;;13.73;11.00;;;13.40;1.00;;;;;;5051963;28;20488;-79
2021/09/23 01:36:42;;;;;;;12.85;10.75;;;13.40;1.00;;;;;;5051675;28;20036;-78
2021/09/23 01:39:08;;;;;;;14.85;10.68;;;13.40;1.00;;;;;;5052521;28;20029;-79
2021/09/23 01:41:34;;;;;;;14.70;11.65;;;13.40;1.00;;;;;;5051672;28;20036;-79
2021/09/23 01:44:01;;;;;;;14.80;10.60;;;13.40;1.00;;;;;;5054011;28;20065;-78
2021/09/23 01:46:26;;;;;;;15.30;11.10;;;13.40;1.00;;;;;;5051750;28;20070;-78
2021/09/23 01:48:52;;;;;;;13.75;10.40;;;13.40;1.00;;;;;;5051214;28;20482;-78
2021/09/23 01:51:18;;;;;;;13.40;11.85;;;13.30;1.00;;;;;;5051683;28;20033;-79
2021/09/23 01:53:43;;;;;;;14.55;11.85;;;13.20;1.00;;;;;;5035936;28;20116;-79
2021/09/23 01:56:10;;;;;;;14.07;11.80;;;13.20;1.00;;;;;;5054030;28;20037;-79
2021/09/23 01:58:35;;;;;;;14.27;11.73;;;13.10;1.00;;;;;;5050023;28;20392;-78
2021/09/23 02:01:01;;;;;;;14.90;12.07;;;13.10;1.00;;;;;;5050171;28;20054;-78
2021/09/23 02:03:27;;;;;;;13.40;12.00;;;13.50;1.00;;;;;;5051377;28;20112;-78
2021/09/23 02:05:52;;;;;;;15.70;12.68;;;13.10;1.00;;;;;;5051920;28;20040;-78
2021/09/23 02:08:18;;;;;;;16.02;12.93;;;13.20;1.00;;;;;;5052642;28;20035;-79
2021/09/23 02:10:43;;;;;;;14.65;11.95;;;13.10;1.00;;;;;;5050091;28;20063;-78
2021/09/23 02:13:09;;;;;;;15.27;12.65;;;13.10;1.00;;;;;;5051664;28;20025;-79
2021/09/23 02:15:35;;;;;;;15.52;12.88;;;13.10;1.00;;;;;;5051201;28;20123;-78
2021/09/23 02:18:00;;;;;;;17.23;13.60;;;13.10;1.00;;;;;;5050766;28;20057;-78
2021/09/23 02:20:26;;;;;;;16.55;12.75;;;13.00;1.00;;;;;;5051711;28;20119;-79
2021/09/23 02:22:52;;;;;;;19.08;13.50;;;13.00;1.00;;;;;;5052754;28;20024;-78
2021/09/23 02:25:18;;;;;;;15.20;12.38;;;13.00;1.00;;;;;;5033285;28;20040;-78
2021/09/23 02:27:44;;;;;;;17.48;13.18;;;13.00;1.00;;;;;;5051213;28;20207;-79
2021/09/23 02:30:10;;;;;;;15.27;12.50;;;13.00;1.00;;;;;;5033467;28;20470;-78
2021/09/23 02:32:36;;;;;;;14.25;12.10;;;13.00;1.00;;;;;;5050449;28;22467;-78
2021/09/23 02:35:03;;;;;;;15.63;12.80;;;13.00;1.00;;;;;;5052892;28;20029;-78
2021/09/23 02:37:29;;;;;;;18.63;13.70;;;13.00;1.00;;;;;;5049503;28;20029;-78
2021/09/23 02:39:57;;;;;;;16.20;13.45;;;13.10;1.00;;;;;;5051131;28;20435;-78
2021/09/23 02:42:22;;;;;;;17.88;13.30;;;13.30;1.00;;;;;;5050655;28;20021;-78
2021/09/23 02:44:48;;;;;;;17.77;14.23;;;13.30;1.00;;;;;;5050692;28;20025;-78
2021/09/23 02:47:13;;;;;;;16.27;13.57;;;13.40;1.00;;;;;;5052426;28;20028;-78
2021/09/23 02:49:39;;;;;;;17.63;14.30;;;13.10;1.00;;;;;;5050672;28;20036;-78
2021/09/23 02:52:05;;;;;;;19.33;13.82;;;13.60;1.00;;;;;;5050312;28;20029;-78
2021/09/23 02:54:30;;;;;;;15.95;13.02;;;13.10;1.00;;;;;;5050246;28;20024;-78
2021/09/23 02:56:56;;;;;;;16.70;13.65;;;13.20;1.00;;;;;;5032731;28;20036;-78
2021/09/23 02:59:22;;;;;;;16.67;13.68;;;13.10;1.00;;;;;;5051386;28;20482;-78
2021/09/23 03:01:47;;;;;;;17.05;14.15;;;13.20;1.00;;;;;;5050997;28;20029;-78
2021/09/23 03:04:13;;;;;;;19.27;14.63;;;13.10;1.00;;;;;;5050187;28;20474;-78
2021/09/23 03:06:38;;;;;;;18.20;14.02;;;13.10;1.00;;;;;;5050220;28;20029;-78
2021/09/23 03:09:04;;;;;;;18.05;13.98;;;13.30;1.00;;;;;;5050180;28;20090;-79
2021/09/23 03:11:30;;;;;;;21.08;15.00;;;13.40;1.00;;;;;;5032225;28;20029;-78
2021/09/23 03:13:56;;;;;;;16.67;13.70;;;13.20;1.00;;;;;;5049853;28;20063;-78
2021/09/23 03:16:22;;;;;;;18.52;14.45;;;13.10;1.00;;;;;;5048212;28;20044;-78
2021/09/23 03:18:48;;;;;;;17.15;14.60;;;13.10;1.00;;;;;;5050414;28;20044;-78
2021/09/23 03:21:14;;;;;;;15.63;13.50;;;13.40;1.00;;;;;;5050403;28;20029;-78
2021/09/23 03:23:39;;;;;;;15.93;13.73;;;12.90;1.00;;;;;;5049943;28;20028;-78
2021/09/23 03:26:05;;;;;;;19.80;13.20;;;12.80;1.00;;;;;;5051845;28;20025;-78
2021/09/23 03:28:33;;;;;;;17.23;13.18;;;12.80;1.00;;;;;;5049604;28;20393;-78
2021/09/23 03:30:59;;;;;;;15.68;12.30;;;12.80;1.00;;;;;;5049475;28;20036;-78
2021/09/23 03:33:24;;;;;;;16.90;12.63;;;13.20;1.00;;;;;;5050158;28;20120;-79
2021/09/23 03:35:50;;;;;;;17.35;12.65;;;12.70;1.00;;;;;;5050062;28;20184;-78
2021/09/23 03:38:16;;;;;;;14.85;12.90;;;13.10;1.00;;;;;;5051574;28;20068;-78
2021/09/23 03:40:45;;;;;;;19.42;13.18;;;12.60;1.00;;;;;;5031790;28;20488;-78
2021/09/23 03:43:15;;;;;;;16.48;12.50;;;12.60;1.00;;;;;;5049166;28;20036;-78
2021/09/23 03:45:41;;;;;;;17.67;14.07;;;12.60;1.00;;;;;;5049692;28;20032;-78
2021/09/23 03:48:07;;;;;;;17.25;14.02;;;12.60;1.00;;;;;;5050005;28;20033;-78
2021/09/23 03:50:32;;;;;;;17.20;13.77;;;12.60;1.00;;;;;;5049594;28;20474;-78
2021/09/23 03:52:58;;;;;;;18.23;13.40;;;12.60;1.00;;;;;;5051834;28;20028;-79
2021/09/23 03:55:24;;;;;;;22.13;13.55;;;12.60;1.00;;;;;;5048069;28;20029;-78
2021/09/23 03:57:49;;;;;;;18.90;14.27;;;12.60;1.00;;;;;;5048993;28;20040;-78
2021/09/23 04:00:20;;;;;;;21.88;14.52;;;12.50;1.00;;;;;;5049349;28;20028;-78
2021/09/23 04:02:46;;;;;;;16.90;14.27;;;12.50;1.00;;;;;;5034018;28;20044;-78
2021/09/23 04:05:11;;;;;;;19.13;14.15;;;12.50;1.00;;;;;;5029830;28;20474;-78
2021/09/23 04:07:37;;;;;;;21.30;14.95;;;12.60;1.00;;;;;;5050118;28;20032;-78
2021/09/23 04:10:04;;;;;;;17.25;14.23;;;12.70;1.00;;;;;;5049127;28;20120;-78
2021/09/23 04:12:29;;;;;;;18.10;14.80;;;12.70;1.00;;;;;;5049253;28;20050;-78
2021/09/23 04:14:55;;;;;;;17.80;14.60;;;12.70;1.00;;;;;;5049371;28;20487;-79
2021/09/23 04:17:21;;;;;;;18.88;14.38;;;12.70;1.00;;;;;;5050827;28;20447;-78
2021/09/23 04:19:46;;;;;;;20.67;14.32;;;12.70;1.00;;;;;;5050101;28;20048;-78
2021/09/23 04:22:12;;;;;;;19.58;15.50;;;12.70;1.00;;;;;;5049267;28;20029;-78
2021/09/23 04:24:38;;;;;;;19.88;14.95;;;12.70;1.00;;;;;;5051552;28;20017;-78
2021/09/23 04:27:04;;;;;;;17.17;13.65;;;13.10;1.00;;;;;;5053085;28;20025;-78
2021/09/23 04:29:29;;;;;;;18.13;13.65;;;12.60;1.00;;;;;;5053657;28;20079;-78
2021/09/23 04:31:55;;;;;;;18.13;13.70;;;12.80;1.00;;;;;;5055062;28;20033;-78
2021/09/23 04:34:21;;;;;;;17.75;13.98;;;12.60;1.00;;;;;;5051638;28;20488;-78
2021/09/23 04:36:47;;;;;;;19.05;13.23;;;12.60;1.00;;;;;;5053153;28;20071;-78
2021/09/23 04:39:12;;;;;;;16.67;13.27;;;12.60;1.00;;;;;;5053274;28;20417;-78
2021/09/23 04:41:38;;;;;;;16.63;12.85;;;12.70;1.00;;;;;;5053287;28;20037;-78
2021/09/23 04:44:04;;;;;;;17.50;13.95;;;12.60;1.00;;;;;;5055155;28;20132;-78
2021/09/23 04:46:30;;;;;;;18.75;14.30;;;12.70;1.00;;;;;;5052731;28;20040;-78
2021/09/23 04:48:56;;;;;;;20.60;14.00;;;12.50;1.00;;;;;;5052743;28;20021;-78
2021/09/23 04:51:24;;;;;;;16.80;13.02;;;12.80;1.00;;;;;;5052668;28;20025;-78
2021/09/23 04:53:49;;;;;;;17.25;12.93;;;12.50;1.00;;;;;;5052940;28;20489;-78
2021/09/23 04:56:15;;;;;;;17.00;13.55;;;12.50;1.00;;;;;;5054420;28;20068;-78
2021/09/23 04:58:41;;;;;;;19.73;14.15;;;12.50;1.00;;;;;;5051598;28;20404;-78
2021/09/23 05:01:07;;;;;;;18.83;14.18;;;12.50;1.00;;;;;;5052532;28;20029;-78
2021/09/23 05:03:32;;;;;;;16.00;13.52;;;12.40;1.00;;;;;;5034915;28;20024;-78
2021/09/23 05:05:59;;;;;;;19.65;14.00;;;12.40;1.00;;;;;;5052604;28;20021;-77
2021/09/23 05:08:24;;;;;;;20.98;15.18;;;12.40;1.00;;;;;;5053447;28;20060;-78
2021/09/23 05:10:50;;;;;;;19.17;14.90;;;12.30;1.00;;;;;;5053042;28;20110;-78
2021/09/23 05:13:16;;;;;;;18.60;14.57;;;12.30;1.00;;;;;;5050115;28;20171;-77
2021/09/23 05:15:42;;;;;;;20.33;14.55;;;12.30;1.00;;;;;;5053066;28;20486;-78
2021/09/23 05:18:11;;;;;;;21.75;15.25;;;12.30;1.00;;;;;;5052282;28;20032;-78
2021/09/23 05:20:37;;;;;;;22.92;15.95;;;12.30;1.00;;;;;;5052405;28;20041;-78
2021/09/23 05:23:04;;;;;;;19.48;15.75;;;12.20;1.00;;;;;;5036460;28;20036;-78
2021/09/23 05:25:30;;;;;;;21.20;15.65;;;12.30;1.00;;;;;;5051935;28;20033;-78
2021/09/23 05:27:56;;;;;;;22.42;16.77;;;12.30;1.00;;;;;;5049577;28;20036;-78
2021/09/23 05:30:22;;;;;;;22.85;16.58;;;12.70;1.00;;;;;;5051910;28;20024;-79
2021/09/23 05:32:48;;;;;;;25.95;16.02;;;12.30;1.00;;;;;;5052325;28;20431;-78
2021/09/23 05:35:15;;;;;;;21.17;16.83;;;12.20;1.00;;;;;;5053826;28;20370;-79
2021/09/23 05:37:40;;;;;;;20.33;16.55;;;12.30;1.00;;;;;;5051953;28;20440;-80
2021/09/23 05:40:08;;;;;;;22.17;17.17;;;12.30;1.00;;;;;;5051287;28;20044;-80
2021/09/23 05:42:34;;;;;;;20.70;16.33;;;12.30;1.00;;;;;;5052179;28;20025;-79
2021/09/23 05:45:02;;;;;;;25.27;17.60;;;12.30;1.00;;;;;;5051607;28;20378;-80
2021/09/23 05:47:28;;;;;;;21.35;16.75;;;12.50;1.00;;;;;;5052311;28;20022;-79
2021/09/23 05:49:53;;;;;;;23.27;18.17;;;12.30;1.00;;;;;;5052933;28;20031;-79
2021/09/23 05:52:20;;;;;;;25.60;18.65;;;12.40;1.00;;;;;;5050715;28;20083;-79
2021/09/23 05:54:46;;;;;;;22.42;16.92;;;12.70;1.00;;;;;;5051168;28;20025;-80
2021/09/23 05:57:12;;;;;;;22.75;17.50;;;12.50;1.00;;;;;;5051918;28;20493;-79
2021/09/23 05:59:38;;;;;;;31.23;17.67;;;12.40;1.00;;;;;;5051339;28;20068;-80
2021/09/23 06:02:03;;;;;;;24.20;17.27;;;12.40;1.00;;;;;;5053710;28;20025;-79
2021/09/23 06:04:29;;;;;;;21.52;16.92;;;12.50;1.00;;;;;;5051180;28;20029;-79
2021/09/23 06:06:54;;;;;;;23.33;16.73;;;12.60;1.00;;;;;;5052022;28;20032;-80
2021/09/23 06:09:21;;;;;;;21.13;16.67;;;12.60;1.00;;;;;;5051681;28;20025;-79
2021/09/23 06:11:47;;;;;;;24.25;16.80;;;12.70;1.00;;;;;;5051143;28;20025;-81
2021/09/23 06:14:13;;;;;;;23.15;17.20;;;12.80;1.00;;;;;;5032283;28;20038;-81
2021/09/23 06:16:38;;;;;;;21.50;16.60;;;12.80;1.00;;;;;;5031202;28;20068;-79
2021/09/23 06:19:04;;;;;;;19.35;15.88;;;12.90;1.00;;;;;;5031379;28;20018;-78
2021/09/23 06:21:30;;;;;;;21.52;16.23;;;13.20;1.00;;;;;;5028771;28;20099;-78
2021/09/23 06:23:55;;;;;;;21.38;15.63;;;13.00;1.00;;;;;;5029321;28;20021;-78
2021/09/23 06:26:22;;;;;;;21.88;15.57;;;13.20;1.00;;;;;;5032459;28;20037;-78
2021/09/23 06:28:48;;;;;;;22.13;15.48;;;13.30;1.00;;;;;;5031558;28;20048;-78
2021/09/23 06:31:14;;;;;;;23.67;16.25;;;13.40;1.00;;;;;;5029433;28;20092;-79
2021/09/23 06:33:40;;;;;;;21.33;16.55;;;13.30;1.00;;;;;;5030814;28;20021;-79
2021/09/23 06:36:06;;;;;;;20.98;15.93;;;13.30;1.00;;;;;;5031371;28;20540;-79
2021/09/23 06:38:32;;;;;;;17.40;15.38;;;13.30;1.00;;;;;;5030896;28;20021;-79
2021/09/23 06:40:57;;;;;;;22.55;15.45;;;13.30;1.00;;;;;;5032562;28;20033;-79
2021/09/23 06:43:23;;;;;;;20.77;15.07;;;13.30;1.00;;;;;;5030895;28;20109;-80
2021/09/23 06:45:49;;;;;;;21.40;15.93;;;13.50;1.00;;;;;;5029173;28;20025;-79
2021/09/23 06:48:15;;;;;;;18.83;16.48;;;13.60;1.00;;;;;;5029959;28;20028;-80
2021/09/23 06:50:41;;;;;;;19.95;16.42;;;13.70;1.00;;;;;;5030565;28;20487;-79
2021/09/23 06:53:07;;;;;;;18.83;14.70;;;13.70;1.00;;;;;;5032205;28;20022;-79
2021/09/23 06:55:32;;;;;;;22.00;15.13;;;13.80;1.00;;;;;;5029408;28;20037;-79
2021/09/23 06:57:58;;;;;;;18.45;15.30;;;13.80;1.00;;;;;;5030677;28;20044;-78
2021/09/23 07:00:24;;;;;;;19.58;14.98;;;13.80;1.00;;;;;;5030191;28;20026;-79
2021/09/23 07:02:50;;;;;;;19.52;15.32;;;13.90;1.00;;;;;;5030226;28;20053;-79
2021/09/23 07:05:15;;;;;;;20.33;14.75;;;14.00;1.00;;;;;;5032591;28;20515;-79
2021/09/23 07:07:41;;;;;;;20.25;15.68;;;14.10;1.00;;;;;;5029773;28;20036;-78
2021/09/23 07:10:07;;;;;;;24.50;15.70;;;14.30;1.00;;;;;;5028990;28;20409;-79
2021/09/23 07:12:33;;;;;;;19.13;15.63;;;14.40;1.00;;;;;;5030471;28;20022;-78
2021/09/23 07:14:59;;;;;;;16.80;14.90;;;14.40;1.00;;;;;;5044673;28;20330;-79
2021/09/23 07:17:25;;;;;;;19.40;14.27;;;14.50;1.00;;;;;;5050196;28;20040;-79
2021/09/23 07:19:51;;;;;;;20.95;15.68;;;14.60;1.00;;;;;;5050584;28;20082;-78
2021/09/23 07:22:17;;;;;;;19.85;14.88;;;14.60;1.00;;;;;;5048943;28;20116;-79
2021/09/23 07:24:43;;;;;;;17.92;14.65;;;14.60;1.00;;;;;;5049573;28;20025;-79
2021/09/23 07:27:09;;;;;;;18.10;14.38;;;14.70;1.00;;;;;;5049779;28;20039;-79
2021/09/23 07:29:35;;;;;;;19.95;15.70;;;14.80;1.00;;;;;;5031992;28;20385;-79
2021/09/23 07:32:01;;;;;;;21.25;15.68;;;15.00;1.00;;;;;;5034984;28;20035;-78
2021/09/23 07:34:27;;;;;;;18.17;14.88;;;15.10;1.00;;;;;;5049660;28;20116;-79
2021/09/23 07:36:52;;;;;;;22.45;15.80;;;15.10;1.00;;;;;;5049550;28;20068;-79
2021/09/23 07:39:18;;;;;;;19.77;15.10;;;15.30;1.00;;;;;;5049929;28;20025;-79
2021/09/23 07:41:44;;;;;;;17.15;14.85;;;15.40;1.00;;;;;;5049630;28;20033;-79
2021/09/23 07:44:11;;;;;;;18.63;15.00;;;15.40;1.00;;;;;;5051573;28;20428;-79
2021/09/23 07:46:37;;;;;;;18.65;14.73;;;15.60;1.00;;;;;;5049790;28;20459;-79
2021/09/23 07:49:04;;;;;;;18.13;14.32;;;15.50;1.00;;;;;;5048179;28;20393;-79
2021/09/23 07:51:30;;;;;;;22.83;15.40;;;15.60;1.00;;;;;;5048938;28;20063;-79
2021/09/23 07:53:56;;;;;;;17.88;14.60;;;15.60;1.00;;;;;;5049565;28;20277;-79
2021/09/23 07:56:21;;;;;;;18.25;14.20;;;15.80;1.00;;;;;;5051002;28;20036;-79
2021/09/23 07:58:47;;;;;;;18.05;14.40;;;15.70;1.00;;;;;;5049889;28;20037;-79
2021/09/23 08:01:13;;;;;;;20.80;14.93;;;15.80;1.00;;;;;;5049603;28;20113;-79
2021/09/23 08:03:38;;;;;;;17.67;14.18;;;15.90;1.00;;;;;;5049205;28;20031;-79
2021/09/23 08:06:04;;;;;;;16.88;14.38;;;15.70;1.00;;;;;;5049309;28;20029;-79
2021/09/23 08:08:30;;;;;;;16.45;13.48;;;15.80;1.00;;;;;;5049943;28;20033;-79
2021/09/23 08:10:55;;;;;;;21.80;13.80;;;15.90;1.00;;;;;;5051660;28;20028;-79
2021/09/23 08:13:21;;;;;;;23.42;13.50;;;16.00;1.00;;;;;;5049153;28;20033;-79
2021/09/23 08:15:47;;;;;;;16.30;13.63;;;16.10;1.00;;;;;;5049365;28;20362;-79
2021/09/23 08:18:15;;;;;;;20.65;13.35;;;16.10;1.00;;;;;;5049671;28;20074;-79
2021/09/23 08:20:41;;;;;;;19.80;13.48;;;16.20;1.00;;;;;;5048753;28;20401;-79
2021/09/23 08:23:08;;;;;;;19.02;13.00;;;16.40;1.00;;;;;;5051085;28;20025;-79
2021/09/23 08:25:33;;;;;;;20.20;14.45;;;16.50;1.00;;;;;;5049093;28;20025;-79
2021/09/23 08:27:59;;;;;;;17.70;12.85;;;16.70;1.00;;;;;;5047734;28;20515;-78
2021/09/23 08:30:26;;;;;;;19.52;13.70;;;16.70;1.00;;;;;;5049068;28;20078;-79
2021/09/23 08:32:51;;;;;;;17.35;13.55;;;16.70;1.00;;;;;;5049125;28;20557;-77
2021/09/23 08:35:17;;;;;;;17.50;13.27;;;16.80;1.00;;;;;;5050694;28;20132;-79
2021/09/23 08:37:44;;;;;;;19.77;14.05;;;16.90;1.00;;;;;;5049658;28;20123;-79
2021/09/23 08:40:12;;;;;;;18.77;14.20;;;17.20;1.00;;;;;;5031269;28;20523;-79
2021/09/23 08:42:39;;;;;;;20.80;12.80;;;17.40;1.00;;;;;;5049060;28;20017;-79
2021/09/23 08:45:06;;;;;;;20.95;13.07;;;17.60;1.00;;;;;;5048948;28;20025;-79
2021/09/23 08:47:33;;;;;;;17.85;11.68;;;17.60;1.00;;;;;;5048486;28;20029;-80
2021/09/23 08:50:00;;;;;;;18.23;12.35;;;17.70;1.00;;;;;;5051430;28;20074;-79
2021/09/23 08:52:27;;;;;;;14.98;11.88;;;18.10;1.00;;;;;;5049097;28;20033;-79
2021/09/23 08:54:53;;;;;;;14.52;10.98;;;19.70;1.00;;;;;;5048698;28;20021;-79
2021/09/23 08:57:19;;;;;;;15.80;12.00;;;24.50;1.00;;;;;;5049788;28;20036;-80
2021/09/23 08:59:44;;;;;;;14.00;11.52;;;28.80;1.00;;;;;;5048800;28;20397;-80
2021/09/23 09:02:24;;;;;;;15.65;11.52;;;31.40;1.00;;;;;;5050873;28;20108;-79
2021/09/23 09:04:55;;;;;;;12.02;10.50;;;33.30;1.00;;;;;;5049614;28;20028;-80
2021/09/23 09:07:26;;;;;;;12.88;11.07;;;34.60;1.00;;;;;;5046944;28;20021;-80
2021/09/23 09:10:06;;;;;;;13.13;11.73;;;34.80;1.00;;;;;;5049216;28;20048;-80
2021/09/23 09:12:32;;;;;;;14.80;10.70;;;35.60;1.00;;;;;;5052775;28;20031;-80
2021/09/23 09:15:00;;;;;;;13.75;11.35;;;35.40;1.00;;;;;;5052158;28;20521;-80
2021/09/23 09:17:25;;;;;;;15.25;11.70;;;36.40;1.00;;;;;;5052911;28;20512;-80
2021/09/23 09:20:02;;;;;;;10.90;9.80;;;36.70;1.00;;;;;;5053622;28;20102;-80
2021/09/23 09:22:30;;;;;;;12.00;10.80;;;36.50;1.00;;;;;;5052264;28;20025;-80
2021/09/23 09:25:03;;;;;;;15.10;10.90;;;37.10;1.00;;;;;;5052506;28;20021;-80
2021/09/23 09:27:34;;;;;;;10.68;9.68;;;37.30;1.00;;;;;;5051026;28;20025;-80
2021/09/23 09:30:12;;;;;;;12.25;9.50;;;37.50;1.00;;;;;;5038439;28;20025;-80
2021/09/23 09:32:47;;;;;;;10.02;9.13;;;38.50;1.00;;;;;;5051047;28;20030;-80
2021/09/23 09:35:15;;;;;;;10.02;9.02;;;38.10;1.00;;;;;;5049479;28;20362;-80
2021/09/23 09:37:43;;;;;;;10.90;9.90;;;38.20;1.00;;;;;;5051937;28;20040;-80
2021/09/23 09:40:15;;;;;;;10.52;9.52;;;38.80;1.00;;;;;;5034027;28;20036;-81
2021/09/23 09:42:43;;;;;;;10.18;9.27;;;39.10;99.90;;;;;;5051902;28;20169;-81
2021/09/23 09:45:14;;;;;;;9.60;8.57;;;38.30;1.00;;;;;;5050630;28;20027;-81
2021/09/23 09:47:41;;;;;;;9.27;8.50;;;38.30;1.00;;;;;;5051455;28;20030;-81
2021/09/23 09:50:15;;;;;;;9.68;8.80;;;37.60;1.00;;;;;;5053470;28;20027;-80
2021/09/23 09:52:50;;;;;;;12.90;8.40;;;38.00;1.00;;;;;;5051741;28;20048;-81
2021/09/23 09:55:18;;;;;;;10.45;9.00;;;39.20;99.90;;;;;;5051549;28;20032;-80
2021/09/23 09:57:49;;;;;;;11.27;9.02;;;39.50;99.90;;;;;;5051318;28;20033;-81
2021/09/23 10:00:16;;;;;;;11.35;9.30;;;39.60;99.90;;;;;;5051081;28;20082;-81
2021/09/23 10:02:45;;;;;;;13.60;9.48;;;39.20;99.90;;;;;;5051801;28;20029;-81
2021/09/23 10:05:12;;;;;;;10.30;8.70;;;39.80;99.90;;;;;;5053491;28;20553;-81
2021/09/23 10:07:40;;;;;;;11.20;9.43;;;40.80;99.90;;;;;;5051214;28;20025;-81
2021/09/23 10:10:09;;;;;;;10.38;8.65;;;40.60;99.90;;;;;;5051311;28;20036;-81
2021/09/23 10:12:36;;;;;;;9.88;9.07;;;39.20;99.90;;;;;;5050928;28;20017;-81
2021/09/23 10:15:03;;;;;;;9.68;8.88;;;40.80;99.90;;;;;;5050690;28;20052;-81
2021/09/23 10:17:32;;;;;;;10.85;8.50;;;40.90;99.90;;;;;;5051908;28;20025;-81
2021/09/23 10:19:59;;;;;;;9.32;8.50;;;41.70;99.90;;;;;;5051191;28;20033;-81
2021/09/23 10:22:27;;;;;;;9.57;8.70;;;41.50;99.90;;;;;;5050134;28;20485;-82
2021/09/23 10:24:53;;;;;;;9.77;7.90;;;41.00;99.90;;;;;;5049535;28;20477;-81
2021/09/23 10:30:06;;;;;;;8.98;8.18;;;41.10;99.90;;;;;;5051544;28;20123;-81
2021/09/23 10:32:32;;;;;;;8.23;7.53;;;42.20;99.90;;;;;;5050570;28;20017;-81
2021/09/23 10:34:59;;;;;;;8.68;7.88;;;42.20;99.90;;;;;;5053124;28;20085;-81
2021/09/23 10:37:25;;;;;;;9.07;8.38;;;43.10;99.90;;;;;;5033043;28;20458;-81
2021/09/23 10:39:51;;;;;;;7.53;6.85;;;43.60;99.90;;;;;;5050447;28;20044;-82
2021/09/23 10:42:21;;;;;;;8.77;7.97;;;45.00;99.90;;;;;;5051174;28;20101;-81
2021/09/23 10:44:52;;;;;;;8.05;7.43;;;44.90;99.90;;;;;;5034963;28;20041;-81
2021/09/23 10:47:30;;;;;;;8.25;7.45;;;44.80;99.90;;;;;;5052425;28;20032;-81
2021/09/23 10:49:56;;;;;;;8.43;7.45;;;45.30;99.90;;;;;;5052441;28;20036;-81
2021/09/23 10:52:23;;;;;;;7.72;7.03;;;44.90;99.90;;;;;;5050429;28;20511;-81
2021/09/23 10:54:54;;;;;;;8.52;6.80;;;44.40;99.90;;;;;;5033328;28;20179;-81
2021/09/23 10:57:21;;;;;;;7.78;7.07;;;45.40;99.90;;;;;;5050862;28;20033;-81
2021/09/23 10:59:48;;;;;;;6.90;6.30;;;45.60;99.90;;;;;;5050002;28;20469;-81
2021/09/23 11:02:27;;;;;;;7.47;6.88;;;44.90;99.90;;;;;;5048361;28;20047;-81
2021/09/23 11:04:58;;;;;;;7.07;6.47;;;43.60;99.90;;;;;;5051903;28;20036;-81
2021/09/23 11:07:25;;;;;;;7.18;6.25;;;43.50;99.90;;;;;;5050654;28;20441;-81
2021/09/23 11:10:15;;;;;;;8.55;7.07;;;43.50;99.90;;;;;;5050390;28;20100;-81
2021/09/23 11:12:44;;;;;;;6.90;6.18;;;43.20;99.90;;;;;;5049600;28;20100;-81
2021/09/23 11:15:13;;;;;;;7.55;6.63;;;43.60;99.90;;;;;;5049982;28;20053;-81
2021/09/23 11:17:41;;;;;;;7.00;6.30;;;44.70;99.90;;;;;;5049906;28;20367;-81
2021/09/23 11:20:11;;;;;;;7.97;6.32;;;44.20;99.90;;;;;;5052388;28;20110;-81
2021/09/23 11:22:40;;;;;;;6.88;6.10;;;44.30;99.90;;;;;;5049743;28;20044;-81
2021/09/23 11:25:12;;;;;;;6.65;5.95;;;44.90;99.90;;;;;;5049872;28;20381;-82
2021/09/23 11:27:39;;;;;;;6.10;5.60;;;45.10;99.90;;;;;;5049840;28;20090;-81
2021/09/23 11:30:08;;;;;;;6.30;5.80;;;44.60;99.90;;;;;;5050702;28;20017;-81
2021/09/23 11:32:48;;;;;;;6.75;6.20;;;44.10;99.90;;;;;;5049815;28;20246;-81
2021/09/23 11:35:14;;;;;;;6.03;5.43;;;43.40;99.90;;;;;;5048199;28;20044;-81
2021/09/23 11:37:40;;;;;;;6.30;5.80;;;44.20;99.90;;;;;;5031981;28;20067;-82
2021/09/23 11:40:07;;;;;;;5.82;5.43;;;44.80;99.90;;;;;;5049452;28;20126;-82
2021/09/23 11:42:34;;;;;;;6.25;5.65;;;45.40;99.90;;;;;;5048238;28;20389;-82
2021/09/23 11:45:13;;;;;;;5.80;5.40;;;44.40;99.90;;;;;;5049747;28;20029;-82
2021/09/23 11:47:50;;;;;;;6.10;5.30;;;44.40;99.90;;;;;;5050101;28;20026;-82
2021/09/23 11:50:58;;;;;;;5.85;4.90;;;43.90;99.90;;;;;;5047712;28;20032;-82
2021/09/23 11:53:29;;;;;;;5.63;5.22;;;45.30;99.90;;;;;;4969610;28;20038;-81
2021/09/23 11:56:08;;;;;;;5.03;4.60;;;45.40;99.90;;;;;;4970418;28;20034;-81
2021/09/23 11:58:38;;;;;;;4.00;3.70;;;43.30;99.90;;;;;;4968359;28;20058;-81
2021/09/23 12:01:04;;;;;;;4.35;4.05;;;43.80;99.90;;;;;;4968492;28;20056;-82
2021/09/23 12:03:39;;;;;;;4.45;4.07;;;43.70;99.90;;;;;;4968486;28;20045;-82
2021/09/23 12:06:11;;;;;;;3.90;3.50;;;42.50;99.90;;;;;;4968853;28;20491;-81
2021/09/23 12:08:37;;;;;;;5.68;3.60;;;41.90;99.90;;;;;;4968816;28;20051;-82
2021/09/23 12:11:05;;;;;;;3.90;3.60;;;41.50;99.90;;;;;;4970694;28;20034;-82
2021/09/23 12:13:38;;;;;;;4.38;3.95;;;42.10;99.90;;;;;;4968180;28;20074;-81
2021/09/23 12:16:07;;;;;;;5.35;3.83;;;40.40;99.90;;;;;;4968498;28;20074;-81
2021/09/23 12:18:34;;;;;;;5.80;3.47;;;38.80;99.90;;;;;;4968450;28;20091;-82
2021/09/23 12:21:02;;;;;;;3.58;3.35;;;38.30;99.90;;;;;;4967375;28;20467;-81
2021/09/23 12:23:30;;;;;;;4.43;4.00;;;39.20;99.90;;;;;;4969551;28;20451;-82
2021/09/23 12:26:13;;;;;;;4.15;3.85;;;39.50;99.90;;;;;;4969931;28;20085;-82
2021/09/23 12:29:06;;;;;;;3.92;3.63;;;39.30;99.90;;;;;;5049058;28;20040;-81
2021/09/23 12:31:41;;;;;;;4.10;3.67;;;39.50;99.90;;;;;;5049079;28;20075;-81
2021/09/23 12:34:20;;;;;;;4.15;3.83;;;39.60;99.90;;;;;;5049343;28;20037;-82
2021/09/23 12:37:05;;;;;;;4.20;3.80;;;38.30;99.90;;;;;;5048787;28;20068;-82
2021/09/23 12:39:44;;;;;;;4.13;3.83;;;38.20;99.90;;;;;;5048778;28;20032;-82
2021/09/23 12:42:17;;;;;;;4.28;3.97;;;39.20;99.90;;;;;;5049213;28;20021;-81
2021/09/23 12:44:57;;;;;;;4.30;3.90;;;40.00;99.90;;;;;;5049299;28;20436;-81